createdAt,value
2019-03-21T00:00:21.056Z,4.73
2019-03-21T00:01:21.039Z,4.80
2019-03-21T00:02:21.233Z,4.84
2019-03-21T00:03:21.027Z,4.75
2019-03-21T00:04:21.020Z,4.60
2019-03-21T00:05:20.999Z,4.66
2019-03-21T00:06:21.200Z,4.71
2019-03-21T00:07:20.985Z,4.71
2019-03-21T00:08:20.984Z,4.71
2019-03-21T00:09:21.180Z,4.56
2019-03-21T00:10:21.171Z,4.71
2019-03-21T00:11:20.969Z,4.68
2019-03-21T00:12:20.961Z,4.71
2019-03-21T00:13:20.949Z,4.77
2019-03-21T00:14:20.938Z,4.74
2019-03-21T00:15:20.943Z,4.68
2019-03-21T00:16:21.130Z,4.66
2019-03-21T00:17:20.919Z,4.56
2019-03-21T00:18:21.111Z,4.50
2019-03-21T00:19:20.912Z,4.44
2019-03-21T00:20:20.898Z,4.40
2019-03-21T00:21:20.900Z,4.45
2019-03-21T00:22:20.885Z,4.26
2019-03-21T00:23:20.876Z,4.28
2019-03-21T00:24:20.876Z,4.30
2019-03-21T00:25:21.065Z,4.19
2019-03-21T00:26:20.856Z,4.20
2019-03-21T00:27:20.861Z,4.31
2019-03-21T00:28:20.841Z,4.31
2019-03-21T00:29:20.834Z,4.30
2019-03-21T00:30:20.841Z,4.24
2019-03-21T00:31:21.046Z,4.37
2019-03-21T00:32:20.807Z,4.37
2019-03-21T00:33:20.817Z,4.42
2019-03-21T00:34:20.812Z,4.40
2019-03-21T00:35:20.802Z,4.40
2019-03-21T00:36:20.808Z,4.42
2019-03-21T00:37:20.988Z,4.31
2019-03-21T00:38:20.769Z,4.20
2019-03-21T00:39:20.768Z,4.22
2019-03-21T00:40:20.955Z,4.10
2019-03-21T00:41:20.960Z,4.16
2019-03-21T00:42:20.744Z,4.06
2019-03-21T00:43:20.935Z,4.08
2019-03-21T00:44:20.729Z,4.10
2019-03-21T00:45:20.920Z,4.13
2019-03-21T00:46:20.710Z,4.10
2019-03-21T00:47:20.717Z,4.12
2019-03-21T00:48:20.696Z,4.19
2019-03-21T00:49:20.711Z,4.14
2019-03-21T00:50:20.885Z,4.14
2019-03-21T00:51:20.877Z,4.12
2019-03-21T00:52:20.666Z,4.04
2019-03-21T00:53:20.672Z,4.14
2019-03-21T00:54:20.655Z,4.02
2019-03-21T00:55:20.862Z,3.98
2019-03-21T00:56:20.884Z,3.91
2019-03-21T00:57:20.627Z,3.99
2019-03-21T00:58:20.649Z,3.91
2019-03-21T00:59:20.616Z,3.94
2019-03-21T01:00:20.615Z,3.88
2019-03-21T01:01:20.621Z,3.88
2019-03-21T01:02:20.606Z,3.91
2019-03-21T01:03:20.590Z,4.01
2019-03-21T01:04:20.583Z,3.91
2019-03-21T01:05:20.577Z,4.04
2019-03-21T01:06:20.560Z,4.06
2019-03-21T01:07:20.573Z,4.06
2019-03-21T01:08:20.552Z,4.12
2019-03-21T01:09:20.545Z,4.13
2019-03-21T01:10:20.540Z,4.08
2019-03-21T01:11:20.546Z,4.14
2019-03-21T01:12:20.525Z,4.16
2019-03-21T01:13:20.521Z,4.12
2019-03-21T01:14:29.375Z,4.08
2019-03-21T01:15:20.505Z,4.13
2019-03-21T01:16:20.506Z,4.06
2019-03-21T01:17:20.491Z,3.98
2019-03-21T01:18:20.490Z,3.94
2019-03-21T01:19:20.473Z,3.86
2019-03-21T01:20:20.678Z,3.77
2019-03-21T01:21:20.666Z,3.78
2019-03-21T01:22:20.457Z,3.70
2019-03-21T01:23:20.447Z,3.74
2019-03-21T01:24:20.436Z,3.76
2019-03-21T01:25:20.434Z,3.70
2019-03-21T01:26:20.642Z,3.69
2019-03-21T01:27:20.422Z,3.70
2019-03-21T01:28:20.649Z,3.66
2019-03-21T01:29:20.397Z,3.70
2019-03-21T01:30:20.589Z,3.80
2019-03-21T01:31:20.376Z,3.84
2019-03-21T01:32:20.368Z,3.91
2019-03-21T01:33:20.567Z,3.92
2019-03-21T01:34:20.368Z,4.04
2019-03-21T01:35:20.346Z,4.08
2019-03-21T01:36:20.550Z,4.05
2019-03-21T01:37:20.534Z,4.02
2019-03-21T01:38:20.342Z,3.95
2019-03-21T01:39:20.315Z,3.86
2019-03-21T01:40:20.311Z,3.84
2019-03-21T01:41:20.521Z,3.77
2019-03-21T01:42:20.494Z,3.81
2019-03-21T01:43:20.491Z,3.87
2019-03-21T01:44:20.482Z,3.80
2019-03-21T01:45:20.282Z,3.74
2019-03-21T01:46:20.265Z,3.70
2019-03-21T01:47:20.463Z,3.65
2019-03-21T01:48:20.458Z,3.76
2019-03-21T01:49:20.451Z,3.70
2019-03-21T01:50:20.440Z,3.81
2019-03-21T01:51:20.224Z,3.68
2019-03-21T01:52:20.231Z,3.70
2019-03-21T01:53:20.223Z,3.73
2019-03-21T01:54:20.418Z,3.81
2019-03-21T01:55:20.209Z,3.83
2019-03-21T01:56:20.186Z,3.88
2019-03-21T01:57:20.387Z,3.92
2019-03-21T01:58:20.176Z,3.81
2019-03-21T01:59:20.178Z,3.78
2019-03-21T02:00:20.174Z,3.69
2019-03-21T02:01:20.158Z,3.76
2019-03-21T02:02:20.348Z,3.77
2019-03-21T02:03:20.350Z,3.77
2019-03-21T02:04:20.333Z,3.74
2019-03-21T02:05:20.346Z,3.65
2019-03-21T02:06:20.350Z,3.78
2019-03-21T02:07:20.112Z,3.76
2019-03-21T02:08:20.302Z,3.68
2019-03-21T02:09:20.303Z,3.81
2019-03-21T02:10:20.096Z,3.63
2019-03-21T02:11:20.088Z,3.69
2019-03-21T02:12:20.097Z,3.70
2019-03-21T02:13:20.070Z,3.73
2019-03-21T02:14:20.061Z,3.60
2019-03-21T02:15:20.051Z,3.58
2019-03-21T02:16:20.037Z,3.60
2019-03-21T02:17:20.034Z,3.53
2019-03-21T02:18:20.023Z,3.60
2019-03-21T02:19:20.030Z,3.55
2019-03-21T02:20:20.037Z,3.58
2019-03-21T02:21:20.014Z,3.56
2019-03-21T02:22:19.997Z,3.65
2019-03-21T02:23:20.191Z,3.62
2019-03-21T02:24:20.201Z,3.58
2019-03-21T02:25:19.979Z,3.56
2019-03-21T02:26:19.959Z,3.55
2019-03-21T02:27:19.952Z,3.59
2019-03-21T02:28:19.958Z,3.55
2019-03-21T02:29:19.951Z,3.51
2019-03-21T02:30:19.945Z,3.53
2019-03-21T02:31:19.933Z,3.45
2019-03-21T02:32:19.930Z,3.34
2019-03-21T02:33:19.910Z,3.44
2019-03-21T02:35:19.109Z,3.42
2019-03-21T02:35:19.916Z,3.34
2019-03-21T02:36:20.106Z,3.32
2019-03-21T02:37:19.917Z,3.42
2019-03-21T02:38:19.904Z,3.41
2019-03-21T02:39:20.083Z,3.47
2019-03-21T02:40:19.872Z,3.47
2019-03-21T02:41:19.868Z,3.55
2019-03-21T02:42:19.858Z,3.56
2019-03-21T02:43:19.858Z,3.47
2019-03-21T02:44:19.857Z,3.45
2019-03-21T02:45:19.958Z,3.56
2019-03-21T02:46:19.826Z,3.55
2019-03-21T02:47:19.821Z,3.44
2019-03-21T02:48:19.815Z,3.42
2019-03-21T02:49:20.037Z,3.58
2019-03-21T02:50:19.829Z,3.58
2019-03-21T02:51:19.814Z,3.56
2019-03-21T02:52:19.985Z,3.53
2019-03-21T02:53:19.788Z,3.44
2019-03-21T02:54:19.767Z,3.45
2019-03-21T02:55:19.762Z,3.40
2019-03-21T02:56:19.777Z,3.37
2019-03-21T02:57:19.743Z,3.42
2019-03-21T02:58:19.743Z,3.37
2019-03-21T02:59:19.936Z,3.42
2019-03-21T03:00:19.735Z,3.36
2019-03-21T03:01:19.916Z,3.34
2019-03-21T03:02:19.918Z,3.36
2019-03-21T03:03:19.695Z,3.36
2019-03-21T03:04:19.690Z,3.44
2019-03-21T03:05:19.682Z,3.48
2019-03-21T03:06:19.687Z,3.47
2019-03-21T03:07:19.883Z,3.41
2019-03-21T03:08:19.660Z,3.36
2019-03-21T03:09:19.681Z,3.50
2019-03-21T03:10:19.653Z,3.42
2019-03-21T03:11:19.661Z,3.51
2019-03-21T03:12:19.628Z,3.59
2019-03-21T03:13:19.633Z,3.56
2019-03-21T03:14:19.623Z,3.59
2019-03-21T03:15:22.908Z,3.53
2019-03-21T03:16:19.604Z,3.55
2019-03-21T03:17:19.831Z,3.60
2019-03-21T03:18:19.594Z,3.60
2019-03-21T03:19:19.622Z,3.51
2019-03-21T03:20:19.569Z,3.47
2019-03-21T03:21:19.779Z,3.41
2019-03-21T03:22:19.551Z,3.41
2019-03-21T03:23:19.767Z,3.31
2019-03-21T03:24:19.553Z,3.40
2019-03-21T03:25:19.539Z,3.23
2019-03-21T03:26:19.529Z,3.34
2019-03-21T03:27:19.730Z,3.29
2019-03-21T03:28:19.506Z,3.34
2019-03-21T03:29:19.522Z,3.23
2019-03-21T03:30:19.501Z,3.36
2019-03-21T03:31:19.488Z,3.34
2019-03-21T03:32:19.485Z,3.28
2019-03-21T03:33:19.709Z,3.29
2019-03-21T03:34:19.478Z,3.26
2019-03-21T03:35:19.662Z,3.19
2019-03-21T03:36:19.472Z,3.28
2019-03-21T03:37:19.446Z,3.29
2019-03-21T03:38:19.440Z,3.25
2019-03-21T03:39:19.434Z,3.18
2019-03-21T03:40:19.412Z,3.21
2019-03-21T03:41:19.412Z,3.23
2019-03-21T03:42:19.414Z,3.19
2019-03-21T03:43:19.389Z,3.07
2019-03-21T03:44:19.406Z,3.18
2019-03-21T03:45:19.392Z,3.01
2019-03-21T03:46:19.370Z,3.00
2019-03-21T03:47:19.363Z,2.95
2019-03-21T03:48:20.213Z,3.00
2019-03-21T03:49:19.346Z,3.00
2019-03-21T03:50:19.336Z,2.93
2019-03-21T03:51:19.351Z,3.00
2019-03-21T03:52:19.334Z,3.01
2019-03-21T03:53:19.311Z,2.97
2019-03-21T03:54:19.303Z,2.95
2019-03-21T03:55:19.517Z,3.07
2019-03-21T03:56:19.492Z,3.05
2019-03-21T03:57:19.287Z,3.07
2019-03-21T03:58:19.274Z,3.10
2019-03-21T03:59:19.272Z,2.95
2019-03-21T04:00:19.260Z,2.95
2019-03-21T04:01:19.277Z,2.95
2019-03-21T04:02:19.254Z,2.95
2019-03-21T04:03:19.230Z,2.89
2019-03-21T04:04:19.241Z,2.86
2019-03-21T04:05:19.223Z,2.93
2019-03-21T04:06:19.209Z,2.93
2019-03-21T04:07:19.205Z,2.97
2019-03-21T04:08:19.402Z,2.97
2019-03-21T04:09:19.397Z,2.93
2019-03-21T04:10:19.381Z,2.92
2019-03-21T04:11:19.372Z,2.90
2019-03-21T04:12:19.172Z,2.87
2019-03-21T04:13:19.154Z,2.92
2019-03-21T04:14:19.359Z,2.87
2019-03-21T04:15:19.148Z,3.00
2019-03-21T04:16:19.159Z,2.92
2019-03-21T04:17:19.329Z,2.98
2019-03-21T04:18:19.115Z,2.97
2019-03-21T04:19:19.110Z,3.04
2019-03-21T04:20:19.114Z,3.05
2019-03-21T04:21:19.093Z,3.07
2019-03-21T04:22:19.096Z,3.13
2019-03-21T04:23:19.079Z,3.10
2019-03-21T04:24:19.281Z,3.10
2019-03-21T04:25:19.057Z,3.07
2019-03-21T04:26:19.072Z,3.11
2019-03-21T04:27:19.040Z,3.14
2019-03-21T04:28:19.061Z,3.03
2019-03-21T04:29:19.245Z,3.05
2019-03-21T04:30:19.017Z,3.01
2019-03-21T04:31:19.012Z,3.08
2019-03-21T04:32:19.005Z,3.05
2019-03-21T04:33:22.358Z,2.98
2019-03-21T04:34:18.991Z,2.98
2019-03-21T04:35:18.984Z,2.95
2019-03-21T04:36:19.179Z,2.95
2019-03-21T04:37:18.964Z,2.98
2019-03-21T04:38:18.963Z,2.98
2019-03-21T04:39:18.956Z,3.00
2019-03-21T04:40:19.155Z,3.01
2019-03-21T04:41:18.934Z,3.04
2019-03-21T04:42:18.924Z,3.10
2019-03-21T04:43:18.915Z,3.07
2019-03-21T04:44:18.909Z,3.08
2019-03-21T04:45:19.104Z,3.14
2019-03-21T04:46:18.891Z,3.16
2019-03-21T04:47:19.093Z,3.13
2019-03-21T04:48:19.083Z,3.18
2019-03-21T04:49:18.868Z,3.16
2019-03-21T04:50:18.873Z,3.08
2019-03-21T04:51:18.852Z,3.11
2019-03-21T04:52:18.844Z,3.08
2019-03-21T04:53:19.042Z,3.07
2019-03-21T04:54:18.829Z,3.03
2019-03-21T04:55:19.024Z,3.00
2019-03-21T04:56:19.030Z,3.01
2019-03-21T04:57:18.805Z,2.95
2019-03-21T04:58:18.797Z,2.97
2019-03-21T04:59:18.791Z,2.95
2019-03-21T05:00:18.986Z,2.93
2019-03-21T05:01:18.992Z,2.83
2019-03-21T05:02:18.768Z,2.87
2019-03-21T05:03:18.759Z,2.80
2019-03-21T05:04:18.761Z,2.80
2019-03-21T05:05:18.741Z,2.90
2019-03-21T05:06:18.756Z,2.83
2019-03-21T05:07:18.751Z,2.87
2019-03-21T05:08:18.745Z,2.85
2019-03-21T05:09:18.710Z,2.87
2019-03-21T05:10:18.714Z,2.77
2019-03-21T05:11:18.707Z,2.90
2019-03-21T05:12:18.686Z,2.72
2019-03-21T05:13:18.881Z,2.61
2019-03-21T05:14:18.703Z,2.65
2019-03-21T05:15:18.708Z,2.62
2019-03-21T05:16:18.659Z,2.60
2019-03-21T05:17:18.678Z,2.54
2019-03-21T05:18:18.639Z,2.57
2019-03-21T05:19:18.640Z,2.61
2019-03-21T05:20:18.623Z,2.60
2019-03-21T05:21:18.672Z,2.62
2019-03-21T05:22:18.621Z,2.68
2019-03-21T05:23:18.604Z,2.71
2019-03-21T05:24:18.592Z,2.83
2019-03-21T05:25:18.593Z,2.82
2019-03-21T05:26:18.605Z,2.83
2019-03-21T05:27:18.568Z,2.89
2019-03-21T05:28:18.568Z,2.82
2019-03-21T05:29:18.560Z,2.74
2019-03-21T05:30:18.550Z,2.75
2019-03-21T05:31:18.544Z,2.71
2019-03-21T05:32:18.529Z,2.74
2019-03-21T05:33:18.534Z,2.75
2019-03-21T05:34:18.515Z,2.72
2019-03-21T05:35:18.500Z,2.69
2019-03-21T05:36:18.498Z,2.74
2019-03-21T05:37:18.487Z,2.71
2019-03-21T05:38:18.487Z,2.74
2019-03-21T05:39:18.671Z,2.72
2019-03-21T05:40:18.459Z,2.68
2019-03-21T05:41:18.455Z,2.72
2019-03-21T05:42:18.447Z,2.72
2019-03-21T05:43:18.463Z,2.68
2019-03-21T05:44:18.446Z,2.74
2019-03-21T05:45:18.420Z,2.71
2019-03-21T05:46:26.422Z,2.71
2019-03-21T05:47:18.405Z,2.72
2019-03-21T05:48:18.598Z,2.57
2019-03-21T05:49:18.391Z,2.67
2019-03-21T05:50:18.377Z,2.67
2019-03-21T05:51:18.374Z,2.67
2019-03-21T05:52:18.363Z,2.62
2019-03-21T05:53:18.564Z,2.56
2019-03-21T05:54:18.356Z,2.60
2019-03-21T05:55:18.349Z,2.62
2019-03-21T05:56:18.341Z,2.61
2019-03-21T05:57:18.320Z,2.62
2019-03-21T05:58:18.316Z,2.61
2019-03-21T05:59:18.509Z,2.62
2019-03-21T06:00:18.302Z,2.60
2019-03-21T06:01:18.288Z,2.71
2019-03-21T06:02:18.282Z,2.69
2019-03-21T06:03:18.276Z,2.77
2019-03-21T06:04:18.267Z,2.82
2019-03-21T06:05:18.475Z,2.80
2019-03-21T06:06:18.530Z,2.93
2019-03-21T06:07:18.289Z,2.95
2019-03-21T06:08:18.266Z,3.00
2019-03-21T06:09:18.251Z,3.01
2019-03-21T06:10:18.227Z,2.98
2019-03-21T06:11:18.428Z,3.01
2019-03-21T06:12:18.214Z,3.05
2019-03-21T06:13:18.201Z,3.18
2019-03-21T06:14:18.182Z,3.23
2019-03-21T06:15:18.175Z,3.26
2019-03-21T06:16:18.182Z,3.28
2019-03-21T06:17:18.158Z,3.31
2019-03-21T06:18:18.153Z,3.36
2019-03-21T06:19:18.169Z,3.41
2019-03-21T06:20:18.139Z,3.34
2019-03-21T06:21:18.143Z,3.42
2019-03-21T06:22:18.118Z,3.47
2019-03-21T06:23:18.115Z,3.44
2019-03-21T06:24:18.114Z,3.48
2019-03-21T06:25:18.113Z,3.50
2019-03-21T06:26:18.089Z,3.37
2019-03-21T06:27:18.084Z,3.40
2019-03-21T06:28:18.069Z,3.34
2019-03-21T06:29:18.268Z,3.41
2019-03-21T06:30:18.260Z,3.37
2019-03-21T06:31:18.055Z,3.48
2019-03-21T06:32:18.055Z,3.53
2019-03-21T06:33:18.031Z,3.47
2019-03-21T06:34:18.223Z,3.55
2019-03-21T06:35:18.023Z,3.51
2019-03-21T06:36:18.006Z,3.56
2019-03-21T06:37:18.205Z,3.74
2019-03-21T06:38:17.995Z,3.77
2019-03-21T06:39:17.982Z,3.73
2019-03-21T06:40:17.984Z,3.77
2019-03-21T06:41:17.977Z,3.92
2019-03-21T06:42:17.958Z,3.91
2019-03-21T06:43:17.953Z,4.02
2019-03-21T06:44:17.942Z,4.14
2019-03-21T06:45:17.935Z,4.14
2019-03-21T06:46:17.927Z,4.23
2019-03-21T06:47:17.921Z,4.16
2019-03-21T06:48:17.911Z,4.30
2019-03-21T06:49:17.915Z,4.37
2019-03-21T06:50:17.894Z,4.40
2019-03-21T06:51:17.898Z,4.44
2019-03-21T06:52:17.893Z,4.44
2019-03-21T06:53:17.877Z,4.58
2019-03-21T06:54:18.075Z,4.70
2019-03-21T06:55:17.855Z,4.74
2019-03-21T06:56:18.071Z,4.70
2019-03-21T06:57:17.848Z,4.80
2019-03-21T06:58:17.836Z,4.92
2019-03-21T06:59:18.030Z,4.89
2019-03-21T07:00:17.829Z,4.99
2019-03-21T07:01:17.821Z,5.08
2019-03-21T07:02:17.855Z,5.15
2019-03-21T07:03:18.033Z,5.17
2019-03-21T07:04:17.790Z,5.26
2019-03-21T07:05:17.795Z,5.35
2019-03-21T07:06:17.977Z,5.38
2019-03-21T07:07:17.766Z,5.39
2019-03-21T07:08:17.759Z,5.39
2019-03-21T07:09:17.749Z,5.61
2019-03-21T07:10:17.746Z,5.53
2019-03-21T07:11:17.738Z,5.64
2019-03-21T07:12:17.728Z,5.65
2019-03-21T07:13:17.721Z,5.71
2019-03-21T07:14:17.733Z,5.76
2019-03-21T07:15:17.709Z,5.80
2019-03-21T07:16:17.699Z,5.94
2019-03-21T07:17:17.908Z,5.93
2019-03-21T07:18:17.695Z,6.07
2019-03-21T07:19:17.690Z,6.01
2019-03-21T07:20:17.898Z,6.22
2019-03-21T07:21:17.665Z,6.26
2019-03-21T07:22:17.870Z,6.45
2019-03-21T07:23:17.851Z,6.54
2019-03-21T07:24:17.643Z,6.77
2019-03-21T07:25:17.634Z,7.02
2019-03-21T07:26:17.639Z,7.32
2019-03-21T07:27:17.629Z,7.61
2019-03-21T07:28:17.627Z,7.82
2019-03-21T07:29:17.609Z,8.06
2019-03-21T07:30:17.601Z,8.26
2019-03-21T07:31:17.596Z,8.56
2019-03-21T07:32:17.591Z,8.70
2019-03-21T07:33:17.787Z,8.97
2019-03-21T07:34:17.579Z,9.10
2019-03-21T07:35:17.783Z,9.29
2019-03-21T07:36:17.579Z,9.54
2019-03-21T07:37:17.559Z,9.74
2019-03-21T07:38:17.564Z,9.95
2019-03-21T07:39:17.545Z,10.13
2019-03-21T07:40:17.545Z,10.17
2019-03-21T07:41:17.533Z,10.19
2019-03-21T07:42:17.529Z,10.12
2019-03-21T07:43:17.521Z,10.33
2019-03-21T07:44:17.516Z,10.51
2019-03-21T07:45:17.591Z,10.90
2019-03-21T07:46:17.503Z,10.96
2019-03-21T07:47:17.699Z,10.94
2019-03-21T07:48:17.496Z,10.96
2019-03-21T07:49:17.490Z,11.04
2019-03-21T07:50:17.499Z,11.19
2019-03-21T07:51:17.483Z,11.44
2019-03-21T07:52:17.483Z,11.68
2019-03-21T07:53:17.473Z,11.78
2019-03-21T07:54:17.456Z,12.00
2019-03-21T07:55:17.465Z,12.22
2019-03-21T07:56:17.459Z,12.42
2019-03-21T07:57:17.649Z,12.60
2019-03-21T07:58:17.456Z,12.67
2019-03-21T07:59:17.440Z,12.86
2019-03-21T08:00:17.425Z,12.98
2019-03-21T08:01:17.441Z,13.05
2019-03-21T08:02:17.620Z,12.82
2019-03-21T08:03:17.420Z,12.95
2019-03-21T08:04:17.410Z,13.16
2019-03-21T08:05:17.605Z,13.23
2019-03-21T08:06:17.401Z,13.00
2019-03-21T08:07:17.392Z,13.16
2019-03-21T08:08:17.401Z,13.19
2019-03-21T08:09:17.386Z,13.20
2019-03-21T08:10:17.378Z,13.20
2019-03-21T08:11:17.389Z,13.27
2019-03-21T08:12:17.384Z,13.28
2019-03-21T08:13:17.367Z,13.09
2019-03-21T08:14:17.360Z,13.12
2019-03-21T08:15:17.356Z,13.41
2019-03-21T08:16:17.358Z,13.63
2019-03-21T08:17:17.350Z,13.77
2019-03-21T08:18:17.556Z,13.81
2019-03-21T08:19:17.339Z,13.68
2019-03-21T08:20:17.350Z,13.78
2019-03-21T08:21:17.331Z,13.77
2019-03-21T08:22:17.326Z,13.75
2019-03-21T08:23:17.540Z,13.28
2019-03-21T08:24:17.316Z,13.15
2019-03-21T08:25:17.516Z,12.95
2019-03-21T08:26:17.312Z,12.93
2019-03-21T08:27:17.507Z,13.22
2019-03-21T08:28:17.551Z,13.20
2019-03-21T08:29:17.296Z,13.42
2019-03-21T08:30:17.499Z,13.60
2019-03-21T08:31:17.492Z,13.78
2019-03-21T08:32:17.299Z,14.10
2019-03-21T08:33:17.293Z,14.32
2019-03-21T08:34:17.293Z,14.44
2019-03-21T08:35:17.286Z,14.37
2019-03-21T08:36:17.269Z,14.63
2019-03-21T08:37:17.271Z,14.89
2019-03-21T08:38:17.320Z,15.07
2019-03-21T08:39:17.265Z,15.36
2019-03-21T08:40:17.267Z,15.28
2019-03-21T08:41:17.270Z,15.04
2019-03-21T08:42:17.250Z,14.86
2019-03-21T08:43:17.240Z,15.07
2019-03-21T08:44:17.239Z,15.21
2019-03-21T08:45:17.439Z,15.35
2019-03-21T08:46:17.245Z,15.37
2019-03-21T08:47:17.227Z,15.37
2019-03-21T08:48:17.223Z,15.43
2019-03-21T08:49:17.249Z,15.46
2019-03-21T08:50:17.227Z,15.47
2019-03-21T08:51:17.219Z,15.04
2019-03-21T08:52:17.411Z,15.11
2019-03-21T08:53:17.217Z,14.91
2019-03-21T08:54:17.222Z,14.77
2019-03-21T08:55:17.205Z,14.47
2019-03-21T08:56:17.245Z,14.22
2019-03-21T08:57:17.190Z,13.95
2019-03-21T08:58:17.181Z,13.79
2019-03-21T08:59:17.382Z,13.78
2019-03-21T09:00:17.200Z,13.67
2019-03-21T09:01:17.173Z,13.49
2019-03-21T09:02:17.187Z,13.39
2019-03-21T09:03:17.188Z,13.27
2019-03-21T09:04:17.168Z,13.11
2019-03-21T09:05:17.164Z,13.11
2019-03-21T09:06:17.147Z,13.01
2019-03-21T09:07:17.164Z,12.82
2019-03-21T09:08:17.149Z,12.79
2019-03-21T09:09:17.140Z,12.65
2019-03-21T09:10:17.129Z,12.36
2019-03-21T09:11:17.135Z,12.35
2019-03-21T09:12:17.150Z,12.10
2019-03-21T09:13:17.117Z,11.99
2019-03-21T09:14:17.122Z,11.86
2019-03-21T09:15:17.314Z,11.91
2019-03-21T09:16:17.123Z,11.81
2019-03-21T09:17:17.326Z,11.87
2019-03-21T09:18:17.112Z,12.07
2019-03-21T09:19:17.091Z,12.42
2019-03-21T09:20:18.913Z,12.45
2019-03-21T09:21:19.872Z,12.70
2019-03-21T09:22:17.097Z,12.86
2019-03-21T09:23:17.295Z,12.86
2019-03-21T09:24:17.071Z,12.91
2019-03-21T09:25:17.076Z,12.79
2019-03-21T09:26:17.280Z,12.79
2019-03-21T09:27:17.055Z,12.90
2019-03-21T09:28:17.063Z,13.09
2019-03-21T09:29:17.061Z,13.05
2019-03-21T09:30:17.045Z,12.94
2019-03-21T09:31:17.035Z,12.94
2019-03-21T09:32:17.080Z,12.83
2019-03-21T09:33:17.028Z,12.72
2019-03-21T09:34:17.295Z,12.87
2019-03-21T09:35:17.221Z,12.80
2019-03-21T09:36:17.216Z,12.86
2019-03-21T09:37:17.214Z,13.00
2019-03-21T09:38:17.006Z,13.09
2019-03-21T09:39:17.004Z,13.35
2019-03-21T09:40:17.001Z,13.47
2019-03-21T09:41:17.199Z,13.46
2019-03-21T09:42:16.998Z,13.50
2019-03-21T09:43:16.987Z,13.53
2019-03-21T09:44:16.981Z,13.54
2019-03-21T09:45:16.981Z,13.52
2019-03-21T09:46:17.200Z,13.63
2019-03-21T09:47:16.977Z,13.59
2019-03-21T09:48:16.983Z,13.67
2019-03-21T09:49:17.184Z,13.71
2019-03-21T09:50:16.981Z,13.70
2019-03-21T09:51:16.950Z,13.79
2019-03-21T09:52:16.963Z,13.83
2019-03-21T09:53:16.951Z,13.78
2019-03-21T09:54:16.947Z,13.62
2019-03-21T09:55:16.933Z,13.50
2019-03-21T09:56:16.943Z,13.38
2019-03-21T09:57:16.946Z,13.22
2019-03-21T09:58:16.919Z,13.18
2019-03-21T09:59:17.134Z,13.23
2019-03-21T10:00:16.925Z,13.33
2019-03-21T10:01:16.907Z,13.38
2019-03-21T10:02:16.901Z,13.57
2019-03-21T10:03:16.897Z,13.77
2019-03-21T10:04:16.900Z,13.89
2019-03-21T10:05:16.890Z,13.92
2019-03-21T10:06:16.887Z,13.95
2019-03-21T10:07:16.892Z,13.87
2019-03-21T10:08:16.877Z,13.96
2019-03-21T10:09:16.872Z,14.14
2019-03-21T10:10:16.873Z,14.04
2019-03-21T10:11:16.864Z,14.07
2019-03-21T10:12:16.860Z,14.11
2019-03-21T10:13:16.858Z,14.00
2019-03-21T10:14:16.851Z,13.95
2019-03-21T10:15:16.849Z,13.79
2019-03-21T10:16:16.855Z,13.50
2019-03-21T10:17:16.840Z,13.63
2019-03-21T10:18:16.835Z,13.63
2019-03-21T10:19:16.847Z,13.77
2019-03-21T10:20:16.827Z,13.89
2019-03-21T10:21:16.833Z,13.87
2019-03-21T10:22:16.818Z,13.77
2019-03-21T10:23:16.811Z,13.56
2019-03-21T10:24:16.810Z,13.33
2019-03-21T10:25:16.809Z,13.22
2019-03-21T10:26:16.811Z,13.04
2019-03-21T10:27:16.798Z,12.94
2019-03-21T10:28:16.798Z,12.75
2019-03-21T10:29:16.790Z,12.90
2019-03-21T10:30:16.793Z,12.80
2019-03-21T10:31:16.781Z,12.75
2019-03-21T10:32:16.780Z,12.72
2019-03-21T10:33:16.775Z,12.68
2019-03-21T10:34:16.795Z,12.65
2019-03-21T10:35:16.767Z,12.80
2019-03-21T10:36:16.764Z,12.95
2019-03-21T10:37:16.758Z,12.93
2019-03-21T10:38:16.757Z,12.85
2019-03-21T10:39:16.751Z,12.79
2019-03-21T10:40:16.745Z,12.93
2019-03-21T10:41:16.757Z,12.80
2019-03-21T10:42:16.736Z,12.80
2019-03-21T10:43:16.740Z,12.76
2019-03-21T10:44:16.732Z,12.73
2019-03-21T10:45:16.748Z,12.73
2019-03-21T10:46:16.735Z,12.68
2019-03-21T10:47:16.717Z,12.72
2019-03-21T10:48:16.729Z,12.75
2019-03-21T10:49:16.720Z,12.67
2019-03-21T10:50:16.712Z,12.60
2019-03-21T10:51:16.904Z,12.58
2019-03-21T10:52:16.695Z,12.50
2019-03-21T10:53:16.707Z,12.61
2019-03-21T10:54:16.688Z,12.64
2019-03-21T10:55:16.693Z,12.78
2019-03-21T10:56:16.696Z,12.76
2019-03-21T10:57:16.699Z,12.67
2019-03-21T10:58:16.675Z,12.76
2019-03-21T10:59:16.682Z,12.73
2019-03-21T11:00:16.667Z,12.70
2019-03-21T11:01:16.672Z,12.61
2019-03-21T11:02:16.655Z,12.67
2019-03-21T11:03:16.670Z,12.64
2019-03-21T11:04:16.855Z,12.62
2019-03-21T11:05:16.643Z,12.58
2019-03-21T11:06:16.720Z,12.65
2019-03-21T11:07:16.665Z,12.62
2019-03-21T11:08:16.648Z,12.68
2019-03-21T11:09:16.639Z,12.65
2019-03-21T11:10:16.637Z,12.78
2019-03-21T11:11:16.631Z,12.82
2019-03-21T11:12:16.640Z,12.80
2019-03-21T11:13:16.613Z,12.70
2019-03-21T11:14:16.608Z,12.79
2019-03-21T11:15:16.605Z,12.80
2019-03-21T11:16:16.612Z,12.86
2019-03-21T11:17:16.598Z,12.91
2019-03-21T11:18:16.593Z,12.90
2019-03-21T11:19:16.588Z,12.90
2019-03-21T11:20:16.582Z,12.86
2019-03-21T11:21:16.583Z,12.79
2019-03-21T11:22:16.577Z,12.91
2019-03-21T11:23:16.584Z,12.86
2019-03-21T11:24:16.581Z,12.80
2019-03-21T11:25:16.577Z,12.85
2019-03-21T11:26:16.569Z,12.75
2019-03-21T11:27:16.554Z,12.80
2019-03-21T11:28:17.746Z,12.83
2019-03-21T11:29:16.546Z,13.15
2019-03-21T11:30:16.556Z,13.11
2019-03-21T11:31:16.603Z,13.18
2019-03-21T11:32:16.538Z,13.11
2019-03-21T11:33:16.530Z,13.09
2019-03-21T11:34:16.536Z,13.01
2019-03-21T11:35:16.534Z,13.01
2019-03-21T11:36:16.535Z,13.01
2019-03-21T11:37:16.515Z,13.05
2019-03-21T11:38:16.507Z,12.93
2019-03-21T11:39:16.517Z,12.93
2019-03-21T11:40:16.532Z,12.93
2019-03-21T11:41:16.514Z,13.00
2019-03-21T11:42:16.515Z,13.05
2019-03-21T11:43:16.496Z,12.97
2019-03-21T11:44:16.688Z,13.01
2019-03-21T11:45:16.504Z,13.00
2019-03-21T11:46:16.492Z,13.03
2019-03-21T11:47:16.476Z,12.95
2019-03-21T11:48:16.629Z,12.98
2019-03-21T11:49:16.468Z,13.03
2019-03-21T11:50:16.666Z,12.95
2019-03-21T11:51:16.469Z,12.91
2019-03-21T11:52:18.412Z,12.87
2019-03-21T11:53:16.449Z,12.91
2019-03-21T11:54:16.448Z,12.79
2019-03-21T11:55:16.468Z,12.98
2019-03-21T11:56:16.449Z,12.82
2019-03-21T11:57:16.442Z,12.95
2019-03-21T11:58:17.699Z,12.82
2019-03-21T11:59:16.426Z,12.87
2019-03-21T12:00:16.438Z,13.01
2019-03-21T12:01:16.419Z,13.01
2019-03-21T12:02:26.586Z,13.09
2019-03-21T12:03:16.427Z,13.35
2019-03-21T12:04:16.433Z,13.59
2019-03-21T12:05:16.432Z,13.92
2019-03-21T12:06:16.399Z,14.22
2019-03-21T12:07:16.394Z,14.10
2019-03-21T12:08:16.392Z,14.17
2019-03-21T12:09:16.396Z,14.20
2019-03-21T12:10:16.381Z,14.18
2019-03-21T12:11:16.384Z,14.00
2019-03-21T12:12:16.445Z,13.92
2019-03-21T12:13:16.386Z,13.65
2019-03-21T12:14:16.569Z,13.52
2019-03-21T12:15:16.577Z,13.39
2019-03-21T12:16:16.363Z,13.25
2019-03-21T12:17:16.357Z,13.20
2019-03-21T12:18:16.555Z,13.13
2019-03-21T12:19:16.376Z,13.11
2019-03-21T12:20:16.562Z,13.08
2019-03-21T12:21:16.350Z,13.11
2019-03-21T12:22:16.542Z,13.16
2019-03-21T12:23:16.342Z,13.08
2019-03-21T12:24:16.328Z,13.27
2019-03-21T12:25:16.336Z,13.28
2019-03-21T12:26:16.332Z,13.09
2019-03-21T12:27:16.526Z,13.05
2019-03-21T12:28:16.315Z,13.00
2019-03-21T12:29:16.531Z,13.12
2019-03-21T12:30:16.309Z,13.11
2019-03-21T12:31:16.302Z,13.08
2019-03-21T12:32:16.304Z,13.04
2019-03-21T12:33:16.311Z,13.08
2019-03-21T12:34:16.290Z,13.31
2019-03-21T12:35:16.287Z,13.33
2019-03-21T12:36:16.487Z,13.42
2019-03-21T12:37:16.278Z,13.39
2019-03-21T12:38:16.481Z,13.50
2019-03-21T12:39:16.474Z,13.57
2019-03-21T12:40:16.475Z,13.60
2019-03-21T12:41:16.479Z,13.65
2019-03-21T12:42:16.259Z,13.77
2019-03-21T12:43:16.269Z,13.77
2019-03-21T12:44:16.253Z,13.81
2019-03-21T12:45:16.249Z,13.65
2019-03-21T12:46:16.243Z,13.54
2019-03-21T12:47:16.241Z,13.47
2019-03-21T12:48:16.450Z,13.42
2019-03-21T12:49:16.236Z,13.49
2019-03-21T12:50:16.239Z,13.52
2019-03-21T12:51:16.235Z,13.41
2019-03-21T12:52:16.228Z,13.37
2019-03-21T12:53:16.234Z,13.28
2019-03-21T12:54:16.215Z,13.22
2019-03-21T12:55:16.224Z,13.23
2019-03-21T12:56:16.207Z,13.28
2019-03-21T12:57:16.413Z,13.25
2019-03-21T12:58:16.209Z,13.25
2019-03-21T12:59:16.195Z,13.23
2019-03-21T13:00:16.200Z,13.23
2019-03-21T13:01:16.190Z,13.19
2019-03-21T13:02:16.196Z,13.20
2019-03-21T13:03:16.180Z,13.20
2019-03-21T13:04:16.188Z,13.28
2019-03-21T13:05:16.375Z,13.31
2019-03-21T13:06:16.179Z,13.41
2019-03-21T13:07:16.683Z,13.50